EZS16XA LSGG-LIRF
Flight info
| Callsign | EZS16XA |
|---|---|
| Flight time | N/A |
| Altitude | 33000 |
| Route | MEDAM DCT NITAM DCT MOGBO DCT ELB DCT ELKAP |
| Aircraft | A320/M-SDE3FGHIRWY/LB1 |
Departure
| Time | 2026-02-18 23:46 |
|---|---|
| Airport | Geneva International Airport (LSGG) |
Arrival
| Time | N/A |
|---|---|
| Airport | Rome–Fiumicino Leonardo da Vinci International Airport (LIRF) |
| Time | Latitude | Longitude | Altitude | Speed | Heading |
|---|---|---|---|---|---|
| 2026-02-18 23:13 | 46.22946 | 6.10452 | 1393 ft | 0 kts | 135° |
| 2026-02-18 23:33 | 46.22950 | 6.10447 | 1393 ft | 2 kts | 135° |
| 2026-02-18 23:33 | 46.22964 | 6.10428 | 1393 ft | 3 kts | 135° |
| 2026-02-18 23:34 | 46.22978 | 6.10409 | 1397 ft | 3 kts | 156° |
| 2026-02-18 23:34 | 46.22992 | 6.10405 | 1398 ft | 3 kts | 216° |
| 2026-02-18 23:34 | 46.23000 | 6.10416 | 1402 ft | 2 kts | 225° |
| 2026-02-18 23:34 | 46.23008 | 6.10427 | 1398 ft | 0 kts | 225° |
| 2026-02-18 23:38 | 46.23007 | 6.10425 | 1393 ft | 2 kts | 225° |
| 2026-02-18 23:39 | 46.22991 | 6.10402 | 1406 ft | 3 kts | 225° |
| 2026-02-18 23:39 | 46.22986 | 6.10394 | 1402 ft | 0 kts | 225° |
| 2026-02-18 23:39 | 46.22978 | 6.10383 | 1397 ft | 2 kts | 225° |
| 2026-02-18 23:39 | 46.22975 | 6.10379 | 1398 ft | 0 kts | 225° |
| 2026-02-18 23:40 | 46.22954 | 6.10328 | 1394 ft | 9 kts | 269° |
| 2026-02-18 23:40 | 46.22988 | 6.10255 | 1398 ft | 8 kts | 316° |
| 2026-02-18 23:40 | 46.23023 | 6.10205 | 1397 ft | 6 kts | 315° |
| 2026-02-18 23:40 | 46.23060 | 6.10162 | 1399 ft | 9 kts | 338° |
| 2026-02-18 23:41 | 46.23212 | 6.10365 | 1401 ft | 22 kts | 44° |
| 2026-02-18 23:41 | 46.23325 | 6.10534 | 1400 ft | 24 kts | 46° |
| 2026-02-18 23:41 | 46.23452 | 6.10709 | 1397 ft | 26 kts | 46° |
| 2026-02-18 23:42 | 46.23583 | 6.10900 | 1388 ft | 28 kts | 45° |
| 2026-02-18 23:42 | 46.23724 | 6.11106 | 1383 ft | 31 kts | 45° |
| 2026-02-18 23:42 | 46.23885 | 6.11346 | 1375 ft | 35 kts | 46° |
| 2026-02-18 23:42 | 46.24060 | 6.11601 | 1369 ft | 36 kts | 46° |
| 2026-02-18 23:43 | 46.24211 | 6.11825 | 1363 ft | 32 kts | 44° |
| 2026-02-18 23:43 | 46.24367 | 6.12052 | 1366 ft | 31 kts | 46° |
| 2026-02-18 23:43 | 46.24513 | 6.12268 | 1372 ft | 30 kts | 45° |
| 2026-02-18 23:43 | 46.24665 | 6.12493 | 1365 ft | 33 kts | 46° |
| 2026-02-18 23:44 | 46.24822 | 6.12675 | 1363 ft | 11 kts | 1° |
| 2026-02-18 23:44 | 46.24884 | 6.12704 | 1365 ft | 8 kts | 19° |
| 2026-02-18 23:44 | 46.24936 | 6.12729 | 1367 ft | 10 kts | 15° |
| 2026-02-18 23:44 | 46.25010 | 6.12723 | 1370 ft | 9 kts | 324° |
| 2026-02-18 23:45 | 46.24846 | 6.12424 | 1372 ft | 69 kts | 225° |
| 2026-02-18 23:45 | 46.24350 | 6.11706 | 1372 ft | 129 kts | 226° |
| 2026-02-18 23:45 | 46.23605 | 6.10620 | 1441 ft | 169 kts | 224° |
| 2026-02-18 23:46 | 46.22793 | 6.09452 | 2175 ft | 164 kts | 223° |
| 2026-02-18 23:46 | 46.21985 | 6.08297 | 2967 ft | 162 kts | 224° |
| 2026-02-18 23:46 | 46.21186 | 6.07163 | 3731 ft | 160 kts | 226° |
| 2026-02-18 23:46 | 46.20419 | 6.06029 | 4421 ft | 158 kts | 226° |
| 2026-02-18 23:47 | 46.19658 | 6.04891 | 5102 ft | 158 kts | 227° |
| 2026-02-18 23:47 | 46.18855 | 6.03693 | 5452 ft | 177 kts | 227° |
| 2026-02-18 23:47 | 46.17937 | 6.02327 | 5767 ft | 203 kts | 227° |
| 2026-02-18 23:47 | 46.16894 | 6.00783 | 6173 ft | 226 kts | 227° |
| 2026-02-18 23:48 | 46.15765 | 5.99113 | 6842 ft | 237 kts | 227° |
| 2026-02-18 23:48 | 46.14483 | 5.97571 | 7697 ft | 246 kts | 211° |
| 2026-02-18 23:48 | 46.12795 | 5.96907 | 8546 ft | 263 kts | 188° |
| 2026-02-18 23:48 | 46.10951 | 5.97436 | 9440 ft | 282 kts | 161° |
| 2026-02-18 23:49 | 46.08241 | 6.01923 | 10650 ft | 327 kts | 125° |
| 2026-02-18 23:49 | 46.07108 | 6.04910 | 10897 ft | 351 kts | 123° |
| 2026-02-18 23:49 | 46.05976 | 6.08028 | 11500 ft | 360 kts | 123° |
| 2026-02-18 23:50 | 46.04750 | 6.11178 | 12270 ft | 360 kts | 130° |
| 2026-02-18 23:50 | 46.03153 | 6.13920 | 13037 ft | 356 kts | 142° |
| 2026-02-18 23:50 | 46.01234 | 6.16138 | 13777 ft | 354 kts | 149° |
| 2026-02-18 23:50 | 45.99255 | 6.18232 | 14485 ft | 355 kts | 149° |
| 2026-02-18 23:51 | 45.97256 | 6.20325 | 15163 ft | 358 kts | 149° |
| 2026-02-18 23:51 | 45.95236 | 6.22438 | 15812 ft | 361 kts | 149° |
| 2026-02-18 23:51 | 45.93193 | 6.24576 | 16463 ft | 365 kts | 149° |
| 2026-02-18 23:51 | 45.91131 | 6.26737 | 17122 ft | 369 kts | 149° |
| 2026-02-18 23:52 | 45.89048 | 6.28930 | 17725 ft | 373 kts | 149° |
| 2026-02-18 23:52 | 45.86951 | 6.31150 | 18219 ft | 377 kts | 149° |
| 2026-02-18 23:52 | 45.84828 | 6.33412 | 18744 ft | 383 kts | 150° |
| 2026-02-18 23:52 | 45.82678 | 6.35698 | 19247 ft | 388 kts | 150° |
| 2026-02-18 23:53 | 45.78337 | 6.40316 | 20346 ft | 394 kts | 150° |
| 2026-02-18 23:53 | 45.76127 | 6.42663 | 20895 ft | 397 kts | 150° |
| 2026-02-18 23:53 | 45.73902 | 6.45025 | 21447 ft | 399 kts | 150° |
| 2026-02-18 23:54 | 45.71664 | 6.47398 | 21984 ft | 402 kts | 150° |
| 2026-02-18 23:54 | 45.69405 | 6.49789 | 22507 ft | 404 kts | 150° |
| 2026-02-18 23:54 | 45.67135 | 6.52184 | 22986 ft | 407 kts | 150° |
| 2026-02-18 23:54 | 45.64852 | 6.54592 | 23420 ft | 409 kts | 150° |
| 2026-02-18 23:55 | 45.63301 | 6.56226 | 23680 ft | 410 kts | 151° |